Terminal Aerodrome Forecast
Issued by NWS

Home | Current Version | Previous Version | Text Only | Print | Product List | Glossary On
Versions: 1 2 3 4 5 6 7 8 9 10 11 12 13 14 15 16 17 18 19 20 21 22 23 24 25 26 27 28 29 30 31 32 33 34 35 36 37 38 39 40 41 42 43 44 45 46 47
000
FTUS43 KDDC 251729
TAFGCK
TAF
KGCK 251729Z 2518/2618 21011G18KT P6SM SKC
     FM252300 33008KT P6SM BKN100
     FM260700 01013KT P6SM OVC005=

USA.gov is the U.S. government's official web portal to all federal, state and local government web resources and services.